sensor_id;sensor_type;location;lat;lon;timestamp;P1;durP1;ratioP1;P2;durP2;ratioP2
75005;SDS011;63553;51.814;4.600;2024-03-23T00:55:37;6.47;;;1.80;;
75005;SDS011;63553;51.814;4.600;2024-03-23T00:58:02;8.10;;;1.70;;
75005;SDS011;63553;51.814;4.600;2024-03-23T01:00:28;4.53;;;1.83;;
75005;SDS011;63553;51.814;4.600;2024-03-23T01:02:53;5.77;;;1.70;;
75005;SDS011;63553;51.814;4.600;2024-03-23T01:05:18;7.33;;;1.73;;
75005;SDS011;63553;51.814;4.600;2024-03-23T01:07:44;1.90;;;1.30;;
75005;SDS011;63553;51.814;4.600;2024-03-23T01:10:09;8.00;;;1.90;;
75005;SDS011;63553;51.814;4.600;2024-03-23T01:12:34;8.30;;;2.15;;
75005;SDS011;63553;51.814;4.600;2024-03-23T01:15:00;5.97;;;2.20;;
75005;SDS011;63553;51.814;4.600;2024-03-23T01:17:25;3.90;;;2.10;;
75005;SDS011;63553;51.814;4.600;2024-03-23T01:19:50;9.47;;;2.50;;
75005;SDS011;63553;51.814;4.600;2024-03-23T01:22:16;5.90;;;2.00;;
75005;SDS011;63553;51.814;4.600;2024-03-23T01:24:41;4.82;;;1.98;;
75005;SDS011;63553;51.814;4.600;2024-03-23T01:27:07;7.77;;;2.37;;
75005;SDS011;63553;51.814;4.600;2024-03-23T01:29:33;4.72;;;2.40;;
75005;SDS011;63553;51.814;4.600;2024-03-23T01:31:59;7.63;;;2.40;;
75005;SDS011;63553;51.814;4.600;2024-03-23T01:34:24;5.22;;;1.83;;
75005;SDS011;63553;51.814;4.600;2024-03-23T01:36:50;7.85;;;2.60;;
75005;SDS011;63553;51.814;4.600;2024-03-23T01:39:16;5.57;;;2.17;;
75005;SDS011;63553;51.814;4.600;2024-03-23T01:41:41;3.75;;;2.38;;
75005;SDS011;63553;51.814;4.600;2024-03-23T01:44:07;8.60;;;2.80;;
75005;SDS011;63553;51.814;4.600;2024-03-23T01:46:33;5.93;;;2.10;;
75005;SDS011;63553;51.814;4.600;2024-03-23T01:48:59;6.18;;;2.15;;
75005;SDS011;63553;51.814;4.600;2024-03-23T01:51:25;6.80;;;2.67;;
75005;SDS011;63553;51.814;4.600;2024-03-23T01:53:52;7.75;;;2.95;;
75005;SDS011;63553;51.814;4.600;2024-03-23T01:56:19;5.40;;;2.28;;
75005;SDS011;63553;51.814;4.600;2024-03-23T01:58:45;3.65;;;2.40;;
75005;SDS011;63553;51.814;4.600;2024-03-23T02:01:10;4.07;;;2.03;;
75005;SDS011;63553;51.814;4.600;2024-03-23T02:03:35;4.37;;;2.10;;
75005;SDS011;63553;51.814;4.600;2024-03-23T02:06:01;6.85;;;2.25;;
75005;SDS011;63553;51.814;4.600;2024-03-23T02:08:27;5.72;;;2.33;;
75005;SDS011;63553;51.814;4.600;2024-03-23T02:10:52;7.55;;;2.10;;
75005;SDS011;63553;51.814;4.600;2024-03-23T02:13:18;6.30;;;2.47;;
75005;SDS011;63553;51.814;4.600;2024-03-23T02:15:44;9.45;;;2.50;;
75005;SDS011;63553;51.814;4.600;2024-03-23T02:18:10;8.05;;;1.92;;
75005;SDS011;63553;51.814;4.600;2024-03-23T02:20:36;5.75;;;2.30;;
75005;SDS011;63553;51.814;4.600;2024-03-23T02:23:02;4.97;;;1.75;;
75005;SDS011;63553;51.814;4.600;2024-03-23T02:25:28;3.58;;;1.85;;
75005;SDS011;63553;51.814;4.600;2024-03-23T02:27:53;4.70;;;1.90;;
75005;SDS011;63553;51.814;4.600;2024-03-23T02:30:19;6.22;;;1.98;;
75005;SDS011;63553;51.814;4.600;2024-03-23T02:32:45;6.03;;;1.60;;
75005;SDS011;63553;51.814;4.600;2024-03-23T02:35:11;8.00;;;2.03;;
75005;SDS011;63553;51.814;4.600;2024-03-23T02:37:36;6.03;;;1.70;;
75005;SDS011;63553;51.814;4.600;2024-03-23T02:40:01;5.47;;;1.90;;
75005;SDS011;63553;51.814;4.600;2024-03-23T02:42:27;4.90;;;1.58;;
75005;SDS011;63553;51.814;4.600;2024-03-23T02:44:52;5.43;;;1.60;;
75005;SDS011;63553;51.814;4.600;2024-03-23T02:47:17;4.47;;;1.50;;
75005;SDS011;63553;51.814;4.600;2024-03-23T02:49:43;8.40;;;1.70;;
75005;SDS011;63553;51.814;4.600;2024-03-23T02:52:08;4.63;;;1.85;;
75005;SDS011;63553;51.814;4.600;2024-03-23T02:54:33;4.60;;;1.70;;
75005;SDS011;63553;51.814;4.600;2024-03-23T02:56:59;5.57;;;1.57;;
75005;SDS011;63553;51.814;4.600;2024-03-23T02:59:24;6.27;;;2.53;;
75005;SDS011;63553;51.814;4.600;2024-03-23T03:01:49;3.83;;;1.70;;
75005;SDS011;63553;51.814;4.600;2024-03-23T03:04:15;9.20;;;1.77;;
75005;SDS011;63553;51.814;4.600;2024-03-23T03:06:40;9.15;;;1.92;;
75005;SDS011;63553;51.814;4.600;2024-03-23T03:09:06;8.23;;;1.95;;
75005;SDS011;63553;51.814;4.600;2024-03-23T03:11:31;7.88;;;1.75;;
75005;SDS011;63553;51.814;4.600;2024-03-23T03:13:56;5.00;;;2.10;;
75005;SDS011;63553;51.814;4.600;2024-03-23T03:16:22;6.78;;;2.13;;
75005;SDS011;63553;51.814;4.600;2024-03-23T03:18:47;4.63;;;1.73;;
75005;SDS011;63553;51.814;4.600;2024-03-23T03:21:13;6.13;;;1.90;;
75005;SDS011;63553;51.814;4.600;2024-03-23T03:23:38;8.23;;;1.70;;
75005;SDS011;63553;51.814;4.600;2024-03-23T03:26:04;6.97;;;1.73;;
75005;SDS011;63553;51.814;4.600;2024-03-23T03:28:30;4.07;;;1.65;;
75005;SDS011;63553;51.814;4.600;2024-03-23T03:30:57;4.25;;;1.67;;
75005;SDS011;63553;51.814;4.600;2024-03-23T03:33:23;5.80;;;1.73;;
75005;SDS011;63553;51.814;4.600;2024-03-23T03:35:48;5.37;;;1.40;;
75005;SDS011;63553;51.814;4.600;2024-03-23T03:38:14;5.60;;;1.70;;
75005;SDS011;63553;51.814;4.600;2024-03-23T03:40:39;3.67;;;1.63;;
75005;SDS011;63553;51.814;4.600;2024-03-23T03:43:06;4.57;;;1.80;;
75005;SDS011;63553;51.814;4.600;2024-03-23T03:45:31;4.63;;;1.52;;
75005;SDS011;63553;51.814;4.600;2024-03-23T03:47:57;3.97;;;1.47;;
75005;SDS011;63553;51.814;4.600;2024-03-23T03:50:22;5.68;;;2.08;;
75005;SDS011;63553;51.814;4.600;2024-03-23T03:52:48;6.40;;;1.77;;
75005;SDS011;63553;51.814;4.600;2024-03-23T03:55:14;5.27;;;1.63;;
75005;SDS011;63553;51.814;4.600;2024-03-23T03:57:40;3.17;;;1.30;;
75005;SDS011;63553;51.814;4.600;2024-03-23T04:00:05;7.50;;;1.95;;
75005;SDS011;63553;51.814;4.600;2024-03-23T04:02:32;7.13;;;1.30;;
75005;SDS011;63553;51.814;4.600;2024-03-23T04:04:57;3.40;;;1.67;;
75005;SDS011;63553;51.814;4.600;2024-03-23T04:07:22;4.25;;;2.30;;
75005;SDS011;63553;51.814;4.600;2024-03-23T04:09:48;4.93;;;1.40;;
75005;SDS011;63553;51.814;4.600;2024-03-23T04:12:14;7.53;;;1.70;;
75005;SDS011;63553;51.814;4.600;2024-03-23T04:14:40;8.52;;;1.70;;
75005;SDS011;63553;51.814;4.600;2024-03-23T04:17:05;4.50;;;1.33;;
75005;SDS011;63553;51.814;4.600;2024-03-23T04:19:31;2.85;;;1.52;;
75005;SDS011;63553;51.814;4.600;2024-03-23T04:21:56;7.83;;;1.30;;
75005;SDS011;63553;51.814;4.600;2024-03-23T04:24:21;2.57;;;1.23;;
75005;SDS011;63553;51.814;4.600;2024-03-23T04:26:47;2.58;;;1.20;;
75005;SDS011;63553;51.814;4.600;2024-03-23T04:29:13;5.25;;;1.40;;
75005;SDS011;63553;51.814;4.600;2024-03-23T04:31:38;4.47;;;1.50;;
75005;SDS011;63553;51.814;4.600;2024-03-23T04:34:04;6.97;;;1.70;;
75005;SDS011;63553;51.814;4.600;2024-03-23T04:36:29;4.30;;;1.23;;
75005;SDS011;63553;51.814;4.600;2024-03-23T04:38:56;4.70;;;1.67;;
75005;SDS011;63553;51.814;4.600;2024-03-23T04:41:21;5.72;;;1.50;;
75005;SDS011;63553;51.814;4.600;2024-03-23T04:43:47;5.63;;;1.67;;
75005;SDS011;63553;51.814;4.600;2024-03-23T04:46:12;4.18;;;1.10;;
75005;SDS011;63553;51.814;4.600;2024-03-23T04:48:38;4.95;;;1.60;;
75005;SDS011;63553;51.814;4.600;2024-03-23T04:51:03;5.93;;;1.08;;
75005;SDS011;63553;51.814;4.600;2024-03-23T04:53:29;5.88;;;1.63;;
75005;SDS011;63553;51.814;4.600;2024-03-23T04:55:55;3.28;;;1.48;;
75005;SDS011;63553;51.814;4.600;2024-03-23T04:58:24;3.05;;;1.40;;
75005;SDS011;63553;51.814;4.600;2024-03-23T05:00:54;3.33;;;1.10;;
75005;SDS011;63553;51.814;4.600;2024-03-23T05:03:20;4.22;;;1.30;;
75005;SDS011;63553;51.814;4.600;2024-03-23T05:05:46;10.18;;;1.67;;
75005;SDS011;63553;51.814;4.600;2024-03-23T05:08:12;4.00;;;1.15;;
75005;SDS011;63553;51.814;4.600;2024-03-23T05:10:37;3.83;;;1.33;;
75005;SDS011;63553;51.814;4.600;2024-03-23T05:13:03;4.23;;;1.53;;
75005;SDS011;63553;51.814;4.600;2024-03-23T05:15:28;5.20;;;1.58;;
75005;SDS011;63553;51.814;4.600;2024-03-23T05:17:54;5.55;;;1.40;;
75005;SDS011;63553;51.814;4.600;2024-03-23T05:20:20;2.58;;;1.38;;
75005;SDS011;63553;51.814;4.600;2024-03-23T05:22:46;4.78;;;1.38;;
75005;SDS011;63553;51.814;4.600;2024-03-23T05:25:11;5.90;;;1.10;;
75005;SDS011;63553;51.814;4.600;2024-03-23T05:27:37;4.57;;;1.50;;
75005;SDS011;63553;51.814;4.600;2024-03-23T05:30:02;3.17;;;1.20;;
75005;SDS011;63553;51.814;4.600;2024-03-23T05:32:29;3.25;;;1.35;;
75005;SDS011;63553;51.814;4.600;2024-03-23T05:34:54;7.05;;;1.80;;
75005;SDS011;63553;51.814;4.600;2024-03-23T05:37:22;4.80;;;1.52;;
75005;SDS011;63553;51.814;4.600;2024-03-23T05:39:48;3.53;;;1.20;;
75005;SDS011;63553;51.814;4.600;2024-03-23T05:42:17;4.65;;;1.60;;
75005;SDS011;63553;51.814;4.600;2024-03-23T05:44:45;5.00;;;1.15;;
75005;SDS011;63553;51.814;4.600;2024-03-23T05:47:11;5.35;;;1.20;;
75005;SDS011;63553;51.814;4.600;2024-03-23T05:49:41;6.05;;;1.45;;
75005;SDS011;63553;51.814;4.600;2024-03-23T05:52:10;6.82;;;1.95;;
75005;SDS011;63553;51.814;4.600;2024-03-23T05:54:36;4.85;;;1.70;;
75005;SDS011;63553;51.814;4.600;2024-03-23T05:57:02;6.15;;;1.33;;
75005;SDS011;63553;51.814;4.600;2024-03-23T05:59:27;5.68;;;1.70;;
75005;SDS011;63553;51.814;4.600;2024-03-23T06:01:53;4.80;;;1.85;;
75005;SDS011;63553;51.814;4.600;2024-03-23T06:04:18;4.07;;;1.20;;
75005;SDS011;63553;51.814;4.600;2024-03-23T06:06:44;4.53;;;1.50;;
75005;SDS011;63553;51.814;4.600;2024-03-23T06:09:10;2.72;;;1.35;;
75005;SDS011;63553;51.814;4.600;2024-03-23T06:11:35;5.27;;;1.60;;
75005;SDS011;63553;51.814;4.600;2024-03-23T06:14:00;3.87;;;1.30;;
75005;SDS011;63553;51.814;4.600;2024-03-23T06:16:25;4.83;;;1.20;;
75005;SDS011;63553;51.814;4.600;2024-03-23T06:18:52;3.08;;;1.20;;
75005;SDS011;63553;51.814;4.600;2024-03-23T06:21:17;4.30;;;1.40;;
75005;SDS011;63553;51.814;4.600;2024-03-23T06:23:42;3.87;;;1.63;;
75005;SDS011;63553;51.814;4.600;2024-03-23T06:26:08;3.42;;;1.50;;
75005;SDS011;63553;51.814;4.600;2024-03-23T06:28:33;3.53;;;1.63;;
75005;SDS011;63553;51.814;4.600;2024-03-23T06:30:59;5.75;;;1.60;;
75005;SDS011;63553;51.814;4.600;2024-03-23T06:33:24;4.45;;;1.40;;
75005;SDS011;63553;51.814;4.600;2024-03-23T06:35:50;5.80;;;1.53;;
75005;SDS011;63553;51.814;4.600;2024-03-23T06:38:17;2.42;;;1.20;;
75005;SDS011;63553;51.814;4.600;2024-03-23T06:40:42;4.78;;;1.50;;
75005;SDS011;63553;51.814;4.600;2024-03-23T06:43:12;3.25;;;1.20;;
75005;SDS011;63553;51.814;4.600;2024-03-23T06:45:38;5.05;;;1.40;;
75005;SDS011;63553;51.814;4.600;2024-03-23T06:48:04;3.42;;;1.08;;
75005;SDS011;63553;51.814;4.600;2024-03-23T06:50:32;3.78;;;1.63;;
75005;SDS011;63553;51.814;4.600;2024-03-23T06:52:58;5.22;;;1.52;;
75005;SDS011;63553;51.814;4.600;2024-03-23T06:55:24;3.47;;;1.17;;
75005;SDS011;63553;51.814;4.600;2024-03-23T06:57:51;5.20;;;1.30;;
75005;SDS011;63553;51.814;4.600;2024-03-23T07:00:17;5.38;;;1.23;;
75005;SDS011;63553;51.814;4.600;2024-03-23T07:02:43;4.93;;;1.50;;
75005;SDS011;63553;51.814;4.600;2024-03-23T07:05:09;2.75;;;1.38;;
75005;SDS011;63553;51.814;4.600;2024-03-23T07:07:35;3.45;;;1.27;;
75005;SDS011;63553;51.814;4.600;2024-03-23T07:10:01;4.15;;;1.85;;
75005;SDS011;63553;51.814;4.600;2024-03-23T07:12:26;5.65;;;1.80;;
75005;SDS011;63553;51.814;4.600;2024-03-23T07:14:51;4.70;;;1.20;;
75005;SDS011;63553;51.814;4.600;2024-03-23T07:17:17;13.07;;;1.83;;
75005;SDS011;63553;51.814;4.600;2024-03-23T07:19:43;8.65;;;1.25;;
75005;SDS011;63553;51.814;4.600;2024-03-23T07:22:12;9.55;;;2.38;;
75005;SDS011;63553;51.814;4.600;2024-03-23T07:24:38;5.27;;;1.53;;
75005;SDS011;63553;51.814;4.600;2024-03-23T07:27:04;3.60;;;1.17;;
75005;SDS011;63553;51.814;4.600;2024-03-23T07:29:29;2.90;;;1.27;;
75005;SDS011;63553;51.814;4.600;2024-03-23T07:31:55;15.10;;;7.83;;
75005;SDS011;63553;51.814;4.600;2024-03-23T07:34:20;16.75;;;9.55;;
75005;SDS011;63553;51.814;4.600;2024-03-23T07:36:46;10.23;;;4.82;;
75005;SDS011;63553;51.814;4.600;2024-03-23T07:39:11;7.63;;;2.73;;
75005;SDS011;63553;51.814;4.600;2024-03-23T07:41:36;4.27;;;2.40;;
75005;SDS011;63553;51.814;4.600;2024-03-23T07:44:02;3.67;;;2.30;;
75005;SDS011;63553;51.814;4.600;2024-03-23T07:46:27;6.30;;;2.17;;
75005;SDS011;63553;51.814;4.600;2024-03-23T07:48:52;9.00;;;2.10;;
75005;SDS011;63553;51.814;4.600;2024-03-23T07:51:20;6.05;;;1.65;;
75005;SDS011;63553;51.814;4.600;2024-03-23T07:53:46;3.92;;;1.90;;
75005;SDS011;63553;51.814;4.600;2024-03-23T07:56:12;4.53;;;1.83;;
75005;SDS011;63553;51.814;4.600;2024-03-23T07:58:40;3.10;;;1.20;;
75005;SDS011;63553;51.814;4.600;2024-03-23T08:01:06;5.13;;;1.42;;
75005;SDS011;63553;51.814;4.600;2024-03-23T08:03:36;3.88;;;1.52;;
75005;SDS011;63553;51.814;4.600;2024-03-23T08:08:52;1.70;;;1.33;;
75005;SDS011;63553;51.814;4.600;2024-03-23T08:11:28;1.67;;;1.13;;
75005;SDS011;63553;51.814;4.600;2024-03-23T08:13:54;3.30;;;1.50;;
75005;SDS011;63553;51.814;4.600;2024-03-23T08:16:20;5.25;;;1.40;;
75005;SDS011;63553;51.814;4.600;2024-03-23T08:18:45;2.45;;;1.10;;
75005;SDS011;63553;51.814;4.600;2024-03-23T08:21:11;3.35;;;1.23;;
75005;SDS011;63553;51.814;4.600;2024-03-23T08:23:36;3.28;;;1.40;;
75005;SDS011;63553;51.814;4.600;2024-03-23T08:26:10;3.55;;;1.30;;
75005;SDS011;63553;51.814;4.600;2024-03-23T08:28:37;3.22;;;1.48;;
75005;SDS011;63553;51.814;4.600;2024-03-23T08:31:12;6.20;;;1.58;;
75005;SDS011;63553;51.814;4.600;2024-03-23T08:33:39;4.75;;;1.45;;
75005;SDS011;63553;51.814;4.600;2024-03-23T08:36:07;6.85;;;1.55;;
75005;SDS011;63553;51.814;4.600;2024-03-23T08:38:34;3.17;;;1.67;;
75005;SDS011;63553;51.814;4.600;2024-03-23T08:41:04;2.53;;;1.23;;
75005;SDS011;63553;51.814;4.600;2024-03-23T08:43:34;4.18;;;1.40;;
75005;SDS011;63553;51.814;4.600;2024-03-23T08:46:11;2.08;;;1.45;;
75005;SDS011;63553;51.814;4.600;2024-03-23T08:48:44;2.10;;;1.23;;
75005;SDS011;63553;51.814;4.600;2024-03-23T08:53:39;3.42;;;1.25;;
75005;SDS011;63553;51.814;4.600;2024-03-23T08:56:06;2.10;;;1.13;;
75005;SDS011;63553;51.814;4.600;2024-03-23T08:58:32;2.92;;;1.13;;
75005;SDS011;63553;51.814;4.600;2024-03-23T09:01:19;2.83;;;1.23;;
75005;SDS011;63553;51.814;4.600;2024-03-23T09:03:43;3.50;;;1.08;;
75005;SDS011;63553;51.814;4.600;2024-03-23T09:06:10;4.85;;;1.73;;
75005;SDS011;63553;51.814;4.600;2024-03-23T09:08:36;2.95;;;0.95;;
75005;SDS011;63553;51.814;4.600;2024-03-23T09:11:05;3.17;;;1.27;;
75005;SDS011;63553;51.814;4.600;2024-03-23T09:13:33;2.80;;;1.13;;
75005;SDS011;63553;51.814;4.600;2024-03-23T09:16:00;3.33;;;1.33;;
75005;SDS011;63553;51.814;4.600;2024-03-23T09:18:25;4.65;;;1.45;;
75005;SDS011;63553;51.814;4.600;2024-03-23T09:20:50;2.72;;;1.20;;
75005;SDS011;63553;51.814;4.600;2024-03-23T09:23:16;6.50;;;1.33;;
75005;SDS011;63553;51.814;4.600;2024-03-23T09:25:41;3.93;;;1.30;;
75005;SDS011;63553;51.814;4.600;2024-03-23T09:28:06;3.03;;;1.40;;
75005;SDS011;63553;51.814;4.600;2024-03-23T09:30:35;2.90;;;1.30;;
75005;SDS011;63553;51.814;4.600;2024-03-23T09:33:07;5.38;;;1.20;;
75005;SDS011;63553;51.814;4.600;2024-03-23T09:35:36;2.15;;;1.00;;
75005;SDS011;63553;51.814;4.600;2024-03-23T09:38:02;2.00;;;1.30;;
75005;SDS011;63553;51.814;4.600;2024-03-23T09:40:27;2.43;;;1.07;;
75005;SDS011;63553;51.814;4.600;2024-03-23T09:42:52;2.13;;;1.00;;
75005;SDS011;63553;51.814;4.600;2024-03-23T09:45:21;4.75;;;1.60;;
75005;SDS011;63553;51.814;4.600;2024-03-23T09:47:54;2.60;;;1.10;;
75005;SDS011;63553;51.814;4.600;2024-03-23T09:50:20;3.15;;;1.20;;
75005;SDS011;63553;51.814;4.600;2024-03-23T09:52:46;3.38;;;1.60;;
75005;SDS011;63553;51.814;4.600;2024-03-23T09:55:11;3.20;;;1.48;;
75005;SDS011;63553;51.814;4.600;2024-03-23T09:57:37;4.20;;;1.60;;
75005;SDS011;63553;51.814;4.600;2024-03-23T10:00:03;3.38;;;1.55;;
75005;SDS011;63553;51.814;4.600;2024-03-23T10:02:28;5.03;;;1.85;;
75005;SDS011;63553;51.814;4.600;2024-03-23T10:04:54;5.50;;;2.42;;
75005;SDS011;63553;51.814;4.600;2024-03-23T10:07:20;2.75;;;2.20;;
75005;SDS011;63553;51.814;4.600;2024-03-23T10:09:47;3.17;;;2.60;;
75005;SDS011;63553;51.814;4.600;2024-03-23T10:12:13;3.25;;;2.50;;
75005;SDS011;63553;51.814;4.600;2024-03-23T10:14:40;4.90;;;3.83;;
75005;SDS011;63553;51.814;4.600;2024-03-23T10:19:42;4.10;;;3.70;;
75005;SDS011;63553;51.814;4.600;2024-03-23T10:22:13;6.53;;;4.00;;
75005;SDS011;63553;51.814;4.600;2024-03-23T10:24:40;5.60;;;5.10;;
75005;SDS011;63553;51.814;4.600;2024-03-23T10:27:06;5.07;;;4.68;;
75005;SDS011;63553;51.814;4.600;2024-03-23T10:29:31;6.07;;;5.50;;
75005;SDS011;63553;51.814;4.600;2024-03-23T10:32:12;7.03;;;6.33;;
75005;SDS011;63553;51.814;4.600;2024-03-23T10:34:39;9.45;;;7.85;;
75005;SDS011;63553;51.814;4.600;2024-03-23T10:37:05;8.77;;;7.80;;
75005;SDS011;63553;51.814;4.600;2024-03-23T10:39:32;8.90;;;8.00;;
75005;SDS011;63553;51.814;4.600;2024-03-23T10:42:00;9.35;;;8.45;;
75005;SDS011;63553;51.814;4.600;2024-03-23T10:44:27;9.82;;;8.63;;
75005;SDS011;63553;51.814;4.600;2024-03-23T10:46:54;12.32;;;10.02;;
75005;SDS011;63553;51.814;4.600;2024-03-23T10:49:25;13.88;;;11.98;;
75005;SDS011;63553;51.814;4.600;2024-03-23T10:51:51;15.95;;;11.90;;
75005;SDS011;63553;51.814;4.600;2024-03-23T10:54:17;13.05;;;11.05;;
75005;SDS011;63553;51.814;4.600;2024-03-23T10:56:43;10.80;;;9.70;;
75005;SDS011;63553;51.814;4.600;2024-03-23T10:59:11;10.60;;;8.93;;
75005;SDS011;63553;51.814;4.600;2024-03-23T11:01:53;10.10;;;9.00;;
75005;SDS011;63553;51.814;4.600;2024-03-23T11:04:35;9.75;;;7.85;;
75005;SDS011;63553;51.814;4.600;2024-03-23T11:07:03;8.00;;;7.20;;
75005;SDS011;63553;51.814;4.600;2024-03-23T11:09:49;9.07;;;7.57;;
75005;SDS011;63553;51.814;4.600;2024-03-23T11:14:49;8.10;;;6.15;;
75005;SDS011;63553;51.814;4.600;2024-03-23T11:17:19;8.43;;;6.35;;
75005;SDS011;63553;51.814;4.600;2024-03-23T11:19:55;7.72;;;5.85;;
75005;SDS011;63553;51.814;4.600;2024-03-23T11:25:15;7.75;;;5.35;;
75005;SDS011;63553;51.814;4.600;2024-03-23T11:27:46;6.95;;;5.25;;
75005;SDS011;63553;51.814;4.600;2024-03-23T11:30:16;8.82;;;5.00;;
75005;SDS011;63553;51.814;4.600;2024-03-23T11:32:43;9.07;;;4.90;;
75005;SDS011;63553;51.814;4.600;2024-03-23T11:35:09;6.10;;;4.80;;
75005;SDS011;63553;51.814;4.600;2024-03-23T11:37:38;8.90;;;4.65;;
75005;SDS011;63553;51.814;4.600;2024-03-23T11:40:19;7.88;;;4.35;;
75005;SDS011;63553;51.814;4.600;2024-03-23T11:42:45;5.70;;;4.40;;
75005;SDS011;63553;51.814;4.600;2024-03-23T11:45:10;4.72;;;4.00;;
75005;SDS011;63553;51.814;4.600;2024-03-23T11:47:36;6.07;;;3.95;;
75005;SDS011;63553;51.814;4.600;2024-03-23T11:50:02;6.67;;;4.07;;
75005;SDS011;63553;51.814;4.600;2024-03-23T11:52:27;4.82;;;3.88;;
75005;SDS011;63553;51.814;4.600;2024-03-23T11:55:02;4.00;;;3.35;;
75005;SDS011;63553;51.814;4.600;2024-03-23T11:57:28;7.97;;;3.60;;
75005;SDS011;63553;51.814;4.600;2024-03-23T11:59:54;4.57;;;3.60;;
75005;SDS011;63553;51.814;4.600;2024-03-23T12:02:20;3.40;;;2.83;;
75005;SDS011;63553;51.814;4.600;2024-03-23T12:04:45;3.72;;;2.83;;
75005;SDS011;63553;51.814;4.600;2024-03-23T12:09:37;3.65;;;2.70;;
75005;SDS011;63553;51.814;4.600;2024-03-23T12:12:20;7.57;;;4.80;;
75005;SDS011;63553;51.814;4.600;2024-03-23T12:15:00;7.65;;;4.25;;
75005;SDS011;63553;51.814;4.600;2024-03-23T12:17:27;8.32;;;3.42;;
75005;SDS011;63553;51.814;4.600;2024-03-23T12:19:53;7.80;;;3.07;;
75005;SDS011;63553;51.814;4.600;2024-03-23T12:22:22;4.07;;;2.60;;
75005;SDS011;63553;51.814;4.600;2024-03-23T12:24:48;4.13;;;2.40;;
75005;SDS011;63553;51.814;4.600;2024-03-23T12:27:14;4.90;;;2.30;;
75005;SDS011;63553;51.814;4.600;2024-03-23T12:29:40;2.70;;;1.77;;
75005;SDS011;63553;51.814;4.600;2024-03-23T12:32:07;5.35;;;2.10;;
75005;SDS011;63553;51.814;4.600;2024-03-23T12:34:32;2.65;;;1.60;;
75005;SDS011;63553;51.814;4.600;2024-03-23T12:36:58;2.35;;;1.50;;
75005;SDS011;63553;51.814;4.600;2024-03-23T12:39:23;5.35;;;1.60;;
75005;SDS011;63553;51.814;4.600;2024-03-23T12:41:49;2.65;;;1.38;;
75005;SDS011;63553;51.814;4.600;2024-03-23T12:44:15;5.70;;;1.70;;
75005;SDS011;63553;51.814;4.600;2024-03-23T12:46:41;2.08;;;1.55;;
75005;SDS011;63553;51.814;4.600;2024-03-23T12:49:07;3.08;;;1.55;;
75005;SDS011;63553;51.814;4.600;2024-03-23T12:51:32;3.55;;;1.65;;
75005;SDS011;63553;51.814;4.600;2024-03-23T12:53:58;3.22;;;1.30;;
75005;SDS011;63553;51.814;4.600;2024-03-23T12:56:23;2.65;;;1.60;;
75005;SDS011;63553;51.814;4.600;2024-03-23T12:58:49;5.17;;;1.87;;
75005;SDS011;63553;51.814;4.600;2024-03-23T13:01:16;4.13;;;1.13;;
75005;SDS011;63553;51.814;4.600;2024-03-23T13:03:41;2.30;;;1.13;;
75005;SDS011;63553;51.814;4.600;2024-03-23T13:06:09;4.07;;;1.50;;
75005;SDS011;63553;51.814;4.600;2024-03-23T13:08:35;4.35;;;1.45;;
75005;SDS011;63553;51.814;4.600;2024-03-23T13:11:00;2.80;;;1.37;;
75005;SDS011;63553;51.814;4.600;2024-03-23T13:13:25;5.50;;;1.53;;
75005;SDS011;63553;51.814;4.600;2024-03-23T13:15:50;3.87;;;1.43;;
75005;SDS011;63553;51.814;4.600;2024-03-23T13:18:16;2.70;;;1.40;;
75005;SDS011;63553;51.814;4.600;2024-03-23T13:20:41;4.00;;;1.40;;
75005;SDS011;63553;51.814;4.600;2024-03-23T13:23:07;2.78;;;1.38;;
75005;SDS011;63553;51.814;4.600;2024-03-23T13:25:32;2.60;;;1.48;;
75005;SDS011;63553;51.814;4.600;2024-03-23T13:27:58;3.38;;;1.20;;
75005;SDS011;63553;51.814;4.600;2024-03-23T13:30:24;2.40;;;1.10;;
75005;SDS011;63553;51.814;4.600;2024-03-23T13:32:49;9.63;;;3.30;;
75005;SDS011;63553;51.814;4.600;2024-03-23T13:35:15;14.63;;;3.45;;
75005;SDS011;63553;51.814;4.600;2024-03-23T13:37:41;9.57;;;4.07;;
75005;SDS011;63553;51.814;4.600;2024-03-23T13:40:09;17.30;;;4.57;;
75005;SDS011;63553;51.814;4.600;2024-03-23T13:42:35;20.60;;;5.20;;
75005;SDS011;63553;51.814;4.600;2024-03-23T13:45:00;17.63;;;5.70;;
75005;SDS011;63553;51.814;4.600;2024-03-23T13:47:26;13.07;;;5.90;;
75005;SDS011;63553;51.814;4.600;2024-03-23T13:49:51;13.50;;;5.27;;
75005;SDS011;63553;51.814;4.600;2024-03-23T13:52:16;17.55;;;5.38;;
75005;SDS011;63553;51.814;4.600;2024-03-23T13:54:47;19.67;;;6.40;;
75005;SDS011;63553;51.814;4.600;2024-03-23T13:57:13;13.88;;;5.85;;
75005;SDS011;63553;51.814;4.600;2024-03-23T13:59:38;15.07;;;5.50;;
75005;SDS011;63553;51.814;4.600;2024-03-23T14:02:03;14.10;;;4.83;;
75005;SDS011;63553;51.814;4.600;2024-03-23T14:04:29;14.53;;;5.43;;
75005;SDS011;63553;51.814;4.600;2024-03-23T14:06:54;17.13;;;5.63;;
75005;SDS011;63553;51.814;4.600;2024-03-23T14:09:19;16.45;;;5.05;;
75005;SDS011;63553;51.814;4.600;2024-03-23T14:11:47;15.27;;;4.97;;
75005;SDS011;63553;51.814;4.600;2024-03-23T14:14:13;14.70;;;4.50;;
75005;SDS011;63553;51.814;4.600;2024-03-23T14:16:41;12.50;;;3.40;;
75005;SDS011;63553;51.814;4.600;2024-03-23T14:19:07;10.57;;;3.97;;
75005;SDS011;63553;51.814;4.600;2024-03-23T14:21:33;12.48;;;4.00;;
75005;SDS011;63553;51.814;4.600;2024-03-23T14:23:59;10.02;;;3.35;;
75005;SDS011;63553;51.814;4.600;2024-03-23T14:26:25;11.02;;;3.13;;
75005;SDS011;63553;51.814;4.600;2024-03-23T14:28:51;7.75;;;3.15;;
75005;SDS011;63553;51.814;4.600;2024-03-23T14:31:17;10.20;;;3.47;;
75005;SDS011;63553;51.814;4.600;2024-03-23T14:33:45;5.43;;;2.70;;
75005;SDS011;63553;51.814;4.600;2024-03-23T14:36:15;6.60;;;2.50;;
75005;SDS011;63553;51.814;4.600;2024-03-23T14:38:42;8.73;;;2.45;;
75005;SDS011;63553;51.814;4.600;2024-03-23T14:41:11;6.35;;;2.30;;
75005;SDS011;63553;51.814;4.600;2024-03-23T14:43:37;6.87;;;2.30;;
75005;SDS011;63553;51.814;4.600;2024-03-23T14:48:31;5.85;;;2.20;;
75005;SDS011;63553;51.814;4.600;2024-03-23T14:50:57;6.15;;;1.98;;
75005;SDS011;63553;51.814;4.600;2024-03-23T14:53:24;6.32;;;2.08;;
75005;SDS011;63553;51.814;4.600;2024-03-23T14:55:50;3.25;;;1.80;;
75005;SDS011;63553;51.814;4.600;2024-03-23T14:58:15;5.22;;;2.33;;
75005;SDS011;63553;51.814;4.600;2024-03-23T15:00:41;3.75;;;1.98;;
75005;SDS011;63553;51.814;4.600;2024-03-23T15:03:07;6.72;;;2.33;;
75005;SDS011;63553;51.814;4.600;2024-03-23T15:05:32;5.20;;;2.07;;
75005;SDS011;63553;51.814;4.600;2024-03-23T15:07:58;4.30;;;2.20;;
75005;SDS011;63553;51.814;4.600;2024-03-23T15:10:23;8.40;;;2.03;;
75005;SDS011;63553;51.814;4.600;2024-03-23T15:12:49;5.32;;;1.88;;
75005;SDS011;63553;51.814;4.600;2024-03-23T15:15:14;5.40;;;2.63;;
75005;SDS011;63553;51.814;4.600;2024-03-23T15:17:40;6.53;;;2.10;;
75005;SDS011;63553;51.814;4.600;2024-03-23T15:20:09;3.17;;;1.60;;
75005;SDS011;63553;51.814;4.600;2024-03-23T15:22:36;4.28;;;1.85;;
75005;SDS011;63553;51.814;4.600;2024-03-23T15:25:02;2.72;;;1.33;;
75005;SDS011;63553;51.814;4.600;2024-03-23T15:27:27;3.67;;;1.70;;
75005;SDS011;63553;51.814;4.600;2024-03-23T15:29:52;2.13;;;1.20;;
75005;SDS011;63553;51.814;4.600;2024-03-23T15:32:18;2.95;;;1.20;;
75005;SDS011;63553;51.814;4.600;2024-03-23T15:34:43;4.17;;;1.43;;
75005;SDS011;63553;51.814;4.600;2024-03-23T15:37:08;2.33;;;1.50;;
75005;SDS011;63553;51.814;4.600;2024-03-23T15:39:34;3.10;;;1.23;;
75005;SDS011;63553;51.814;4.600;2024-03-23T15:41:59;4.53;;;1.30;;
75005;SDS011;63553;51.814;4.600;2024-03-23T15:44:24;1.90;;;1.40;;
75005;SDS011;63553;51.814;4.600;2024-03-23T15:46:50;4.20;;;1.60;;
75005;SDS011;63553;51.814;4.600;2024-03-23T15:49:15;2.83;;;1.47;;
75005;SDS011;63553;51.814;4.600;2024-03-23T15:51:40;2.03;;;1.20;;
75005;SDS011;63553;51.814;4.600;2024-03-23T15:54:09;4.68;;;1.30;;